createdAt,value
2022-08-30T00:03:59.918Z,80.64
2022-08-30T00:09:03.279Z,80.70
2022-08-30T00:14:06.931Z,80.76
2022-08-30T00:19:11.537Z,80.83
2022-08-30T00:24:15.053Z,80.74
2022-08-30T00:29:18.582Z,80.91
2022-08-30T00:34:23.904Z,80.71
2022-08-30T00:39:27.939Z,80.98
2022-08-30T00:44:34.424Z,80.97
2022-08-30T00:49:42.372Z,80.75
2022-08-30T00:54:47.962Z,80.96
2022-08-30T00:59:52.901Z,80.89
2022-08-30T01:05:01.648Z,81.09
2022-08-30T01:10:09.383Z,81.05
2022-08-30T01:15:15.345Z,81.01
2022-08-30T01:20:29.670Z,81.03
2022-08-30T01:25:40.106Z,80.97
2022-08-30T01:30:43.440Z,81.03
2022-08-30T01:35:55.854Z,81.43
2022-08-30T01:41:01.338Z,81.41
2022-08-30T01:46:07.316Z,81.43
2022-08-30T01:51:13.666Z,81.75
2022-08-30T01:56:17.678Z,81.64
2022-08-30T02:01:26.963Z,81.71
2022-08-30T02:06:30.105Z,81.55
2022-08-30T02:11:33.990Z,81.66
2022-08-30T02:16:38.009Z,81.88
2022-08-30T02:21:41.712Z,81.83
2022-08-30T02:26:45.743Z,82.02
2022-08-30T02:31:50.078Z,82.04
2022-08-30T02:36:55.307Z,82.18
2022-08-30T02:41:58.455Z,81.65
2022-08-30T02:47:05.375Z,81.98
2022-08-30T02:52:08.772Z,81.50
2022-08-30T02:57:19.983Z,81.50
2022-08-30T03:02:32.068Z,81.61
2022-08-30T03:07:35.385Z,81.66
2022-08-30T03:12:38.990Z,81.48
2022-08-30T03:17:42.602Z,81.43
2022-08-30T03:22:47.730Z,81.54
2022-08-30T03:27:51.425Z,81.46
2022-08-30T03:32:58.020Z,81.59
2022-08-30T03:38:01.458Z,81.51
2022-08-30T03:43:06.613Z,81.45
2022-08-30T03:48:11.074Z,81.05
2022-08-30T03:53:15.175Z,81.03
2022-08-30T03:58:19.461Z,80.68
2022-08-30T04:03:22.840Z,80.80
2022-08-30T04:08:29.651Z,80.65
2022-08-30T04:13:35.940Z,80.32
2022-08-30T04:18:39.259Z,80.11
2022-08-30T04:23:46.399Z,80.03
2022-08-30T04:28:50.226Z,79.49
2022-08-30T04:33:53.617Z,79.27
2022-08-30T04:39:02.847Z,79.05
2022-08-30T04:44:19.202Z,79.17
2022-08-30T04:49:23.757Z,79.23
2022-08-30T04:54:28.897Z,78.74
2022-08-30T04:59:35.083Z,78.81
2022-08-30T05:04:44.253Z,78.81
2022-08-30T05:09:48.667Z,78.36
2022-08-30T05:15:05.750Z,77.50
2022-08-30T05:20:11.671Z,77.03
2022-08-30T05:25:16.748Z,76.62
2022-08-30T05:30:21.933Z,76.38
2022-08-30T05:35:26.134Z,75.75
2022-08-30T05:40:32.865Z,75.62
2022-08-30T05:45:39.003Z,75.13
2022-08-30T05:50:42.746Z,74.75
2022-08-30T05:55:46.730Z,74.47
2022-08-30T06:00:53.376Z,74.24
2022-08-30T06:06:02.433Z,73.73
2022-08-30T06:11:09.268Z,73.48
2022-08-30T06:16:14.770Z,73.03
2022-08-30T06:21:35.803Z,71.98
2022-08-30T06:26:42.731Z,71.80
2022-08-30T06:31:46.655Z,71.60
2022-08-30T06:36:51.148Z,71.41
2022-08-30T06:41:56.765Z,70.59
2022-08-30T06:47:05.929Z,70.30
2022-08-30T06:52:09.465Z,69.66
2022-08-30T06:57:15.449Z,68.88
2022-08-30T07:02:19.956Z,68.22
2022-08-30T07:07:28.182Z,68.46
2022-08-30T07:12:33.293Z,67.88
2022-08-30T07:17:39.827Z,67.48
2022-08-30T07:22:42.919Z,67.87
2022-08-30T07:27:47.638Z,67.39
2022-08-30T07:32:57.112Z,66.67
2022-08-30T07:38:01.001Z,66.28
2022-08-30T07:43:04.702Z,65.61
2022-08-30T07:48:08.900Z,65.38
2022-08-30T07:53:12.514Z,65.01
2022-08-30T07:58:15.910Z,65.12
2022-08-30T08:03:19.530Z,64.54
2022-08-30T08:08:23.871Z,63.92
2022-08-30T08:13:28.588Z,63.15
2022-08-30T08:18:38.438Z,62.80
2022-08-30T08:23:42.230Z,62.15
2022-08-30T08:28:45.964Z,61.67
2022-08-30T08:33:49.477Z,61.71
2022-08-30T08:38:53.866Z,61.79
2022-08-30T08:44:00.204Z,61.21
2022-08-30T08:49:08.823Z,61.24
2022-08-30T08:54:32.672Z,61.22
2022-08-30T08:59:36.028Z,60.61
2022-08-30T09:04:42.735Z,60.88
2022-08-30T09:09:48.678Z,60.73
2022-08-30T09:14:55.789Z,60.83
2022-08-30T09:20:01.245Z,61.00
2022-08-30T09:25:10.201Z,60.35
2022-08-30T09:30:27.091Z,60.84
2022-08-30T09:35:44.343Z,61.06
2022-08-30T09:40:51.544Z,60.90
2022-08-30T09:46:01.271Z,61.13
2022-08-30T09:51:12.231Z,61.14
2022-08-30T09:56:26.261Z,61.15
2022-08-30T10:01:36.995Z,61.11
2022-08-30T10:07:05.430Z,61.15
2022-08-30T10:12:24.351Z,61.22
2022-08-30T10:18:16.655Z,61.59
2022-08-30T10:23:33.527Z,61.34
2022-08-30T10:28:50.542Z,61.93
2022-08-30T10:34:03.362Z,61.50
2022-08-30T10:39:15.127Z,61.89
2022-08-30T10:44:28.090Z,61.66
2022-08-30T10:49:40.416Z,62.16
2022-08-30T10:54:54.786Z,62.51
2022-08-30T11:00:06.052Z,62.13
2022-08-30T11:05:27.660Z,62.26
2022-08-30T11:10:56.306Z,62.78
2022-08-30T11:16:04.479Z,62.21
2022-08-30T11:21:35.715Z,62.57
2022-08-30T11:26:48.170Z,62.42
2022-08-30T11:31:51.456Z,62.08
2022-08-30T11:36:58.134Z,62.32
2022-08-30T11:42:55.246Z,62.35
2022-08-30T11:48:04.372Z,61.89
2022-08-30T11:53:38.085Z,62.22
2022-08-30T11:59:23.081Z,61.64
2022-08-30T12:04:38.871Z,61.50
2022-08-30T12:09:46.135Z,61.49
2022-08-30T12:14:50.544Z,61.97
2022-08-30T12:19:54.956Z,61.08
2022-08-30T12:25:02.554Z,61.52
2022-08-30T12:30:09.977Z,61.36
2022-08-30T12:35:25.470Z,61.11
2022-08-30T12:40:37.252Z,60.69
2022-08-30T12:45:50.835Z,61.15
2022-08-30T12:50:59.521Z,60.59
2022-08-30T12:56:06.486Z,60.24
2022-08-30T13:01:29.215Z,60.51
2022-08-30T13:06:56.167Z,60.41
2022-08-30T13:12:04.168Z,59.31
2022-08-30T13:17:11.222Z,59.09
2022-08-30T13:22:42.882Z,58.05
2022-08-30T13:27:46.591Z,57.35
2022-08-30T13:32:53.016Z,57.63
2022-08-30T13:37:59.929Z,57.82
2022-08-30T13:43:03.470Z,58.10
2022-08-30T13:48:07.243Z,58.78
2022-08-30T13:53:10.941Z,59.20
2022-08-30T13:58:14.495Z,60.02
2022-08-30T14:03:18.061Z,60.63
2022-08-30T14:19:16.207Z,62.10
2022-08-30T14:24:20.025Z,63.05
2022-08-30T14:29:28.463Z,62.93
2022-08-30T14:34:34.002Z,63.00
2022-08-30T14:39:37.969Z,63.05
2022-08-30T14:44:55.806Z,63.77
2022-08-30T14:50:00.145Z,63.80
2022-08-30T14:55:09.039Z,64.00
2022-08-30T15:00:14.000Z,64.25
2022-08-30T15:05:18.698Z,64.70
2022-08-30T15:10:23.863Z,64.96
2022-08-30T15:15:27.480Z,65.10
2022-08-30T15:20:30.810Z,65.06
2022-08-30T15:25:34.112Z,65.63
2022-08-30T15:30:38.159Z,66.05
2022-08-30T15:35:44.505Z,66.30
2022-08-30T15:40:50.505Z,66.53
2022-08-30T15:45:55.287Z,67.19
2022-08-30T15:50:59.506Z,67.27
2022-08-30T15:56:03.222Z,67.43
2022-08-30T16:01:08.014Z,67.65
2022-08-30T16:06:16.914Z,68.18
2022-08-30T16:11:30.527Z,68.40
2022-08-30T16:16:34.466Z,68.76
2022-08-30T16:21:39.832Z,69.15
2022-08-30T16:26:44.980Z,69.56
2022-08-30T16:31:49.082Z,69.85
2022-08-30T16:36:52.503Z,70.33
2022-08-30T16:41:57.083Z,70.68
2022-08-30T16:47:01.098Z,71.10
2022-08-30T16:52:04.843Z,71.30
2022-08-30T16:57:10.704Z,71.79
2022-08-30T17:02:15.990Z,72.34
2022-08-30T17:07:22.413Z,72.86
2022-08-30T17:12:28.371Z,73.07
2022-08-30T17:17:34.576Z,73.29
2022-08-30T17:22:38.054Z,73.76
2022-08-30T17:27:41.906Z,73.87
2022-08-30T17:32:45.649Z,74.06
2022-08-30T17:37:53.998Z,74.32
2022-08-30T17:42:58.516Z,74.71
2022-08-30T17:48:02.710Z,75.09
2022-08-30T17:53:06.157Z,75.40
2022-08-30T17:58:10.189Z,75.50
2022-08-30T18:03:14.054Z,75.84
2022-08-30T18:08:18.810Z,76.00
2022-08-30T18:13:25.305Z,76.50
2022-08-30T18:18:28.915Z,76.44
2022-08-30T18:23:32.971Z,76.68
2022-08-30T18:28:37.962Z,76.84
2022-08-30T18:33:42.566Z,77.14
2022-08-30T18:38:47.695Z,77.20
2022-08-30T18:44:05.828Z,77.18
2022-08-30T18:49:16.542Z,77.17
2022-08-30T18:54:20.636Z,77.40
2022-08-30T18:59:24.434Z,77.52
2022-08-30T19:04:42.732Z,77.81
2022-08-30T19:09:51.353Z,77.73
2022-08-30T19:14:57.622Z,77.78
2022-08-30T19:20:01.991Z,77.90
2022-08-30T19:25:08.174Z,78.40
2022-08-30T19:30:24.001Z,78.44
2022-08-30T19:35:30.650Z,78.31
2022-08-30T19:40:34.102Z,78.49
2022-08-30T19:45:40.137Z,78.56
2022-08-30T19:50:48.654Z,78.50
2022-08-30T19:55:52.801Z,78.58
2022-08-30T20:01:01.275Z,78.66
2022-08-30T20:06:15.335Z,78.70
2022-08-30T20:11:21.776Z,78.81
2022-08-30T20:16:33.073Z,78.98
2022-08-30T20:21:41.609Z,78.80
2022-08-30T20:26:47.547Z,78.83
2022-08-30T20:31:51.445Z,78.87
2022-08-30T20:36:57.962Z,79.12
2022-08-30T20:42:01.478Z,78.79
2022-08-30T20:47:05.038Z,79.01
2022-08-30T20:52:10.501Z,78.91
2022-08-30T20:57:23.842Z,79.07
2022-08-30T21:02:28.119Z,79.04
2022-08-30T21:07:32.495Z,79.03
2022-08-30T21:12:36.261Z,79.10
2022-08-30T21:17:40.263Z,79.24
2022-08-30T21:22:45.277Z,79.39
2022-08-30T21:27:48.945Z,79.23
2022-08-30T21:32:53.251Z,79.32
2022-08-30T21:37:56.882Z,79.44
2022-08-30T21:43:05.871Z,79.49
2022-08-30T21:48:10.460Z,79.69
2022-08-30T21:53:17.313Z,79.70
2022-08-30T21:58:20.754Z,80.24
2022-08-30T22:03:25.393Z,80.11
2022-08-30T22:08:30.430Z,79.90
2022-08-30T22:13:35.890Z,80.18
2022-08-30T22:18:40.036Z,79.88
2022-08-30T22:23:43.561Z,79.99
2022-08-30T22:28:47.444Z,80.20
2022-08-30T22:33:52.980Z,79.80
2022-08-30T22:39:00.044Z,80.09
2022-08-30T22:44:08.707Z,79.87
2022-08-30T22:49:13.398Z,80.07
2022-08-30T22:54:17.061Z,80.20
2022-08-30T22:59:20.448Z,80.39
2022-08-30T23:04:31.116Z,80.22
2022-08-30T23:09:34.349Z,80.15
2022-08-30T23:14:37.677Z,79.91
2022-08-30T23:19:41.105Z,80.10
2022-08-30T23:24:46.313Z,80.00
2022-08-30T23:29:55.661Z,80.16
2022-08-30T23:34:59.646Z,79.86
2022-08-30T23:40:04.800Z,79.88
2022-08-30T23:45:08.730Z,79.75
2022-08-30T23:50:12.094Z,79.80
2022-08-30T23:55:15.432Z,79.54
